sensor_id;sensor_type;location;lat;lon;timestamp;P1;durP1;ratioP1;P2;durP2;ratioP2
10977;SDS011;5542;48.272;10.794;2024-01-11T00:00:20;24.20;;;11.75;;
10977;SDS011;5542;48.272;10.794;2024-01-11T00:02:48;19.03;;;11.53;;
10977;SDS011;5542;48.272;10.794;2024-01-11T00:05:14;20.00;;;11.10;;
10977;SDS011;5542;48.272;10.794;2024-01-11T00:07:41;21.13;;;11.23;;
10977;SDS011;5542;48.272;10.794;2024-01-11T00:10:08;20.38;;;11.38;;
10977;SDS011;5542;48.272;10.794;2024-01-11T00:12:35;21.15;;;10.70;;
10977;SDS011;5542;48.272;10.794;2024-01-11T00:15:01;19.17;;;10.50;;
10977;SDS011;5542;48.272;10.794;2024-01-11T00:17:28;17.73;;;10.40;;
10977;SDS011;5542;48.272;10.794;2024-01-11T00:19:56;24.33;;;12.73;;
10977;SDS011;5542;48.272;10.794;2024-01-11T00:22:23;23.50;;;11.55;;
10977;SDS011;5542;48.272;10.794;2024-01-11T00:24:50;23.27;;;11.32;;
10977;SDS011;5542;48.272;10.794;2024-01-11T00:27:16;23.05;;;12.25;;
10977;SDS011;5542;48.272;10.794;2024-01-11T00:29:43;22.27;;;11.85;;
10977;SDS011;5542;48.272;10.794;2024-01-11T00:32:09;20.88;;;11.20;;
10977;SDS011;5542;48.272;10.794;2024-01-11T00:34:36;23.88;;;12.18;;
10977;SDS011;5542;48.272;10.794;2024-01-11T00:37:05;19.30;;;10.47;;
10977;SDS011;5542;48.272;10.794;2024-01-11T00:39:31;21.92;;;11.50;;
10977;SDS011;5542;48.272;10.794;2024-01-11T00:41:58;25.48;;;12.35;;
10977;SDS011;5542;48.272;10.794;2024-01-11T00:44:25;21.73;;;10.98;;
10977;SDS011;5542;48.272;10.794;2024-01-11T00:46:51;23.15;;;11.93;;
10977;SDS011;5542;48.272;10.794;2024-01-11T00:49:18;25.30;;;12.68;;
10977;SDS011;5542;48.272;10.794;2024-01-11T00:51:44;21.25;;;11.35;;
10977;SDS011;5542;48.272;10.794;2024-01-11T00:54:12;20.67;;;11.27;;
10977;SDS011;5542;48.272;10.794;2024-01-11T00:56:39;23.27;;;11.57;;
10977;SDS011;5542;48.272;10.794;2024-01-11T00:59:05;24.40;;;12.45;;
10977;SDS011;5542;48.272;10.794;2024-01-11T01:01:32;24.17;;;12.52;;
10977;SDS011;5542;48.272;10.794;2024-01-11T01:03:59;20.60;;;11.85;;
10977;SDS011;5542;48.272;10.794;2024-01-11T01:06:25;24.33;;;12.70;;
10977;SDS011;5542;48.272;10.794;2024-01-11T01:08:53;26.60;;;12.75;;
10977;SDS011;5542;48.272;10.794;2024-01-11T01:11:21;25.65;;;12.93;;
10977;SDS011;5542;48.272;10.794;2024-01-11T01:13:48;22.27;;;12.70;;
10977;SDS011;5542;48.272;10.794;2024-01-11T01:16:14;29.38;;;14.00;;
10977;SDS011;5542;48.272;10.794;2024-01-11T01:18:42;30.35;;;14.15;;
10977;SDS011;5542;48.272;10.794;2024-01-11T01:21:09;24.48;;;12.60;;
10977;SDS011;5542;48.272;10.794;2024-01-11T01:23:36;28.38;;;13.18;;
10977;SDS011;5542;48.272;10.794;2024-01-11T01:26:02;25.73;;;13.10;;
10977;SDS011;5542;48.272;10.794;2024-01-11T01:28:30;27.58;;;13.88;;
10977;SDS011;5542;48.272;10.794;2024-01-11T01:30:57;23.90;;;13.00;;
10977;SDS011;5542;48.272;10.794;2024-01-11T01:33:24;22.20;;;12.25;;
10977;SDS011;5542;48.272;10.794;2024-01-11T01:35:50;24.35;;;12.52;;
10977;SDS011;5542;48.272;10.794;2024-01-11T01:38:17;27.77;;;14.00;;
10977;SDS011;5542;48.272;10.794;2024-01-11T01:40:43;26.33;;;13.18;;
10977;SDS011;5542;48.272;10.794;2024-01-11T01:43:10;22.38;;;11.20;;
10977;SDS011;5542;48.272;10.794;2024-01-11T01:45:39;24.73;;;12.60;;
10977;SDS011;5542;48.272;10.794;2024-01-11T01:48:06;22.73;;;11.40;;
10977;SDS011;5542;48.272;10.794;2024-01-11T01:50:33;25.38;;;12.20;;
10977;SDS011;5542;48.272;10.794;2024-01-11T01:53:00;23.58;;;12.48;;
10977;SDS011;5542;48.272;10.794;2024-01-11T01:55:28;21.95;;;12.32;;
10977;SDS011;5542;48.272;10.794;2024-01-11T01:57:55;21.48;;;11.40;;
10977;SDS011;5542;48.272;10.794;2024-01-11T02:00:23;21.92;;;11.57;;
10977;SDS011;5542;48.272;10.794;2024-01-11T02:02:52;24.42;;;12.48;;
10977;SDS011;5542;48.272;10.794;2024-01-11T02:05:19;25.50;;;12.95;;
10977;SDS011;5542;48.272;10.794;2024-01-11T02:07:46;23.20;;;12.70;;
10977;SDS011;5542;48.272;10.794;2024-01-11T02:10:12;23.63;;;12.15;;
10977;SDS011;5542;48.272;10.794;2024-01-11T02:12:39;22.30;;;11.40;;
10977;SDS011;5542;48.272;10.794;2024-01-11T02:15:07;26.77;;;13.48;;
10977;SDS011;5542;48.272;10.794;2024-01-11T02:17:34;22.40;;;12.52;;
10977;SDS011;5542;48.272;10.794;2024-01-11T02:20:02;30.17;;;14.45;;
10977;SDS011;5542;48.272;10.794;2024-01-11T02:22:33;26.42;;;13.77;;
10977;SDS011;5542;48.272;10.794;2024-01-11T02:25:03;24.42;;;12.90;;
10977;SDS011;5542;48.272;10.794;2024-01-11T02:27:30;23.85;;;13.75;;
10977;SDS011;5542;48.272;10.794;2024-01-11T02:29:56;22.38;;;11.38;;
10977;SDS011;5542;48.272;10.794;2024-01-11T02:32:23;24.48;;;12.50;;
10977;SDS011;5542;48.272;10.794;2024-01-11T02:34:50;25.80;;;13.27;;
10977;SDS011;5542;48.272;10.794;2024-01-11T02:37:17;26.35;;;14.10;;
10977;SDS011;5542;48.272;10.794;2024-01-11T02:39:44;27.40;;;14.27;;
10977;SDS011;5542;48.272;10.794;2024-01-11T02:42:12;26.73;;;13.85;;
10977;SDS011;5542;48.272;10.794;2024-01-11T02:44:39;26.23;;;13.55;;
10977;SDS011;5542;48.272;10.794;2024-01-11T02:47:05;25.27;;;13.30;;
10977;SDS011;5542;48.272;10.794;2024-01-11T02:49:32;27.25;;;13.48;;
10977;SDS011;5542;48.272;10.794;2024-01-11T02:51:59;24.17;;;14.20;;
10977;SDS011;5542;48.272;10.794;2024-01-11T02:54:25;31.02;;;14.88;;
10977;SDS011;5542;48.272;10.794;2024-01-11T02:56:52;26.77;;;13.85;;
10977;SDS011;5542;48.272;10.794;2024-01-11T02:59:20;28.43;;;14.67;;
10977;SDS011;5542;48.272;10.794;2024-01-11T03:01:46;26.40;;;13.35;;
10977;SDS011;5542;48.272;10.794;2024-01-11T03:04:12;23.23;;;12.18;;
10977;SDS011;5542;48.272;10.794;2024-01-11T03:06:39;28.92;;;15.00;;
10977;SDS011;5542;48.272;10.794;2024-01-11T03:09:06;29.45;;;14.80;;
10977;SDS011;5542;48.272;10.794;2024-01-11T03:11:32;28.42;;;14.52;;
10977;SDS011;5542;48.272;10.794;2024-01-11T03:13:59;32.67;;;16.55;;
10977;SDS011;5542;48.272;10.794;2024-01-11T03:16:29;32.08;;;15.60;;
10977;SDS011;5542;48.272;10.794;2024-01-11T03:18:55;32.27;;;14.83;;
10977;SDS011;5542;48.272;10.794;2024-01-11T03:21:22;27.48;;;14.48;;
10977;SDS011;5542;48.272;10.794;2024-01-11T03:23:49;32.13;;;15.45;;
10977;SDS011;5542;48.272;10.794;2024-01-11T03:26:15;31.67;;;15.20;;
10977;SDS011;5542;48.272;10.794;2024-01-11T03:28:43;30.85;;;14.93;;
10977;SDS011;5542;48.272;10.794;2024-01-11T03:31:09;30.00;;;14.77;;
10977;SDS011;5542;48.272;10.794;2024-01-11T03:33:37;29.38;;;14.90;;
10977;SDS011;5542;48.272;10.794;2024-01-11T03:36:08;26.25;;;13.35;;
10977;SDS011;5542;48.272;10.794;2024-01-11T03:38:35;30.02;;;14.30;;
10977;SDS011;5542;48.272;10.794;2024-01-11T03:41:07;26.70;;;14.18;;
10977;SDS011;5542;48.272;10.794;2024-01-11T03:43:34;25.65;;;14.13;;
10977;SDS011;5542;48.272;10.794;2024-01-11T03:46:01;29.67;;;15.02;;
10977;SDS011;5542;48.272;10.794;2024-01-11T03:48:28;27.20;;;14.82;;
10977;SDS011;5542;48.272;10.794;2024-01-11T03:50:56;29.33;;;15.13;;
10977;SDS011;5542;48.272;10.794;2024-01-11T03:53:22;25.67;;;13.73;;
10977;SDS011;5542;48.272;10.794;2024-01-11T03:55:49;26.10;;;13.98;;
10977;SDS011;5542;48.272;10.794;2024-01-11T03:58:15;28.97;;;15.23;;
10977;SDS011;5542;48.272;10.794;2024-01-11T04:00:42;32.92;;;16.05;;
10977;SDS011;5542;48.272;10.794;2024-01-11T04:03:09;29.90;;;15.23;;
10977;SDS011;5542;48.272;10.794;2024-01-11T04:05:35;32.97;;;15.40;;
10977;SDS011;5542;48.272;10.794;2024-01-11T04:08:04;33.30;;;16.40;;
10977;SDS011;5542;48.272;10.794;2024-01-11T04:10:32;31.23;;;16.37;;
10977;SDS011;5542;48.272;10.794;2024-01-11T04:12:59;32.65;;;15.35;;
10977;SDS011;5542;48.272;10.794;2024-01-11T04:15:25;31.42;;;15.60;;
10977;SDS011;5542;48.272;10.794;2024-01-11T04:17:52;31.17;;;15.63;;
10977;SDS011;5542;48.272;10.794;2024-01-11T04:20:18;29.73;;;14.77;;
10977;SDS011;5542;48.272;10.794;2024-01-11T04:22:45;31.55;;;16.05;;
10977;SDS011;5542;48.272;10.794;2024-01-11T04:25:13;34.25;;;16.77;;
10977;SDS011;5542;48.272;10.794;2024-01-11T04:27:42;31.93;;;15.70;;
10977;SDS011;5542;48.272;10.794;2024-01-11T04:30:09;30.85;;;15.23;;
10977;SDS011;5542;48.272;10.794;2024-01-11T04:32:36;31.17;;;15.77;;
10977;SDS011;5542;48.272;10.794;2024-01-11T04:35:03;29.38;;;14.60;;
10977;SDS011;5542;48.272;10.794;2024-01-11T04:37:30;26.80;;;14.32;;
10977;SDS011;5542;48.272;10.794;2024-01-11T04:39:57;26.70;;;14.65;;
10977;SDS011;5542;48.272;10.794;2024-01-11T04:42:27;28.45;;;13.95;;
10977;SDS011;5542;48.272;10.794;2024-01-11T04:44:53;24.95;;;13.45;;
10977;SDS011;5542;48.272;10.794;2024-01-11T04:47:20;29.70;;;15.00;;
10977;SDS011;5542;48.272;10.794;2024-01-11T04:49:47;24.45;;;13.60;;
10977;SDS011;5542;48.272;10.794;2024-01-11T04:52:13;25.25;;;12.73;;
10977;SDS011;5542;48.272;10.794;2024-01-11T04:54:40;25.67;;;14.05;;
10977;SDS011;5542;48.272;10.794;2024-01-11T04:57:06;31.13;;;14.93;;
10977;SDS011;5542;48.272;10.794;2024-01-11T04:59:34;26.25;;;14.35;;
10977;SDS011;5542;48.272;10.794;2024-01-11T05:02:01;24.63;;;13.35;;
10977;SDS011;5542;48.272;10.794;2024-01-11T05:04:27;25.17;;;13.30;;
10977;SDS011;5542;48.272;10.794;2024-01-11T05:06:54;22.67;;;13.40;;
10977;SDS011;5542;48.272;10.794;2024-01-11T05:09:21;25.75;;;13.63;;
10977;SDS011;5542;48.272;10.794;2024-01-11T05:11:47;25.52;;;12.27;;
10977;SDS011;5542;48.272;10.794;2024-01-11T05:14:14;23.70;;;12.75;;
10977;SDS011;5542;48.272;10.794;2024-01-11T05:16:42;24.63;;;12.85;;
10977;SDS011;5542;48.272;10.794;2024-01-11T05:19:09;23.85;;;12.82;;
10977;SDS011;5542;48.272;10.794;2024-01-11T05:21:36;22.10;;;11.70;;
10977;SDS011;5542;48.272;10.794;2024-01-11T05:24:03;23.00;;;12.70;;
10977;SDS011;5542;48.272;10.794;2024-01-11T05:26:31;24.88;;;13.27;;
10977;SDS011;5542;48.272;10.794;2024-01-11T05:28:57;27.48;;;12.98;;
10977;SDS011;5542;48.272;10.794;2024-01-11T05:31:24;30.33;;;13.98;;
10977;SDS011;5542;48.272;10.794;2024-01-11T05:33:52;27.00;;;14.00;;
10977;SDS011;5542;48.272;10.794;2024-01-11T05:36:19;28.70;;;14.40;;
10977;SDS011;5542;48.272;10.794;2024-01-11T05:38:46;32.30;;;15.98;;
10977;SDS011;5542;48.272;10.794;2024-01-11T05:41:13;39.03;;;18.15;;
10977;SDS011;5542;48.272;10.794;2024-01-11T05:43:40;27.58;;;15.23;;
10977;SDS011;5542;48.272;10.794;2024-01-11T05:46:07;37.03;;;18.10;;
10977;SDS011;5542;48.272;10.794;2024-01-11T05:48:34;34.13;;;17.33;;
10977;SDS011;5542;48.272;10.794;2024-01-11T05:51:02;31.42;;;16.15;;
10977;SDS011;5542;48.272;10.794;2024-01-11T05:53:29;32.28;;;16.05;;
10977;SDS011;5542;48.272;10.794;2024-01-11T05:55:58;29.02;;;15.10;;
10977;SDS011;5542;48.272;10.794;2024-01-11T05:58:25;27.95;;;15.25;;
10977;SDS011;5542;48.272;10.794;2024-01-11T06:00:51;24.98;;;12.85;;
10977;SDS011;5542;48.272;10.794;2024-01-11T06:03:18;27.20;;;14.70;;
10977;SDS011;5542;48.272;10.794;2024-01-11T06:05:44;32.83;;;16.95;;
10977;SDS011;5542;48.272;10.794;2024-01-11T06:08:12;32.00;;;17.00;;
10977;SDS011;5542;48.272;10.794;2024-01-11T06:10:39;31.47;;;16.77;;
10977;SDS011;5542;48.272;10.794;2024-01-11T06:13:06;30.00;;;16.27;;
10977;SDS011;5542;48.272;10.794;2024-01-11T06:15:33;30.50;;;16.42;;
10977;SDS011;5542;48.272;10.794;2024-01-11T06:18:00;29.20;;;15.57;;
10977;SDS011;5542;48.272;10.794;2024-01-11T06:20:27;29.35;;;15.57;;
10977;SDS011;5542;48.272;10.794;2024-01-11T06:22:53;27.13;;;15.47;;
10977;SDS011;5542;48.272;10.794;2024-01-11T06:25:21;30.67;;;17.67;;
10977;SDS011;5542;48.272;10.794;2024-01-11T06:27:48;29.40;;;15.77;;
10977;SDS011;5542;48.272;10.794;2024-01-11T06:30:14;31.58;;;17.60;;
10977;SDS011;5542;48.272;10.794;2024-01-11T06:32:41;31.58;;;16.52;;
10977;SDS011;5542;48.272;10.794;2024-01-11T06:35:08;34.72;;;16.38;;
10977;SDS011;5542;48.272;10.794;2024-01-11T06:37:34;34.30;;;17.50;;
10977;SDS011;5542;48.272;10.794;2024-01-11T06:40:01;30.38;;;16.65;;
10977;SDS011;5542;48.272;10.794;2024-01-11T06:42:30;26.60;;;14.27;;
10977;SDS011;5542;48.272;10.794;2024-01-11T06:44:57;28.02;;;15.82;;
10977;SDS011;5542;48.272;10.794;2024-01-11T06:47:23;24.63;;;14.43;;
10977;SDS011;5542;48.272;10.794;2024-01-11T06:49:50;27.35;;;15.15;;
10977;SDS011;5542;48.272;10.794;2024-01-11T06:52:16;26.80;;;14.57;;
10977;SDS011;5542;48.272;10.794;2024-01-11T06:54:44;27.92;;;15.32;;
10977;SDS011;5542;48.272;10.794;2024-01-11T06:57:11;30.38;;;16.27;;
10977;SDS011;5542;48.272;10.794;2024-01-11T06:59:39;29.27;;;15.73;;
10977;SDS011;5542;48.272;10.794;2024-01-11T07:02:06;29.67;;;15.85;;
10977;SDS011;5542;48.272;10.794;2024-01-11T07:04:32;31.63;;;16.67;;
10977;SDS011;5542;48.272;10.794;2024-01-11T07:06:59;30.77;;;16.10;;
10977;SDS011;5542;48.272;10.794;2024-01-11T07:09:26;29.40;;;15.68;;
10977;SDS011;5542;48.272;10.794;2024-01-11T07:11:53;32.28;;;16.75;;
10977;SDS011;5542;48.272;10.794;2024-01-11T07:14:20;32.03;;;17.08;;
10977;SDS011;5542;48.272;10.794;2024-01-11T07:16:48;32.63;;;17.30;;
10977;SDS011;5542;48.272;10.794;2024-01-11T07:19:14;33.85;;;17.85;;
10977;SDS011;5542;48.272;10.794;2024-01-11T07:21:41;30.53;;;16.43;;
10977;SDS011;5542;48.272;10.794;2024-01-11T07:24:08;33.35;;;17.30;;
10977;SDS011;5542;48.272;10.794;2024-01-11T07:26:34;33.22;;;17.23;;
10977;SDS011;5542;48.272;10.794;2024-01-11T07:29:01;31.98;;;17.15;;
10977;SDS011;5542;48.272;10.794;2024-01-11T07:31:27;32.85;;;16.80;;
10977;SDS011;5542;48.272;10.794;2024-01-11T07:33:55;35.03;;;17.90;;
10977;SDS011;5542;48.272;10.794;2024-01-11T07:36:22;32.90;;;17.48;;
10977;SDS011;5542;48.272;10.794;2024-01-11T07:38:50;34.67;;;18.33;;
10977;SDS011;5542;48.272;10.794;2024-01-11T07:41:16;30.52;;;16.77;;
10977;SDS011;5542;48.272;10.794;2024-01-11T07:43:43;31.63;;;17.70;;
10977;SDS011;5542;48.272;10.794;2024-01-11T07:46:09;33.50;;;17.27;;
10977;SDS011;5542;48.272;10.794;2024-01-11T07:48:36;28.25;;;15.85;;
10977;SDS011;5542;48.272;10.794;2024-01-11T07:51:04;30.67;;;17.23;;
10977;SDS011;5542;48.272;10.794;2024-01-11T07:53:31;31.60;;;17.00;;
10977;SDS011;5542;48.272;10.794;2024-01-11T07:55:57;29.70;;;16.70;;
10977;SDS011;5542;48.272;10.794;2024-01-11T07:58:24;28.83;;;16.70;;
10977;SDS011;5542;48.272;10.794;2024-01-11T08:00:51;33.17;;;17.20;;
10977;SDS011;5542;48.272;10.794;2024-01-11T08:03:19;32.87;;;17.83;;
10977;SDS011;5542;48.272;10.794;2024-01-11T08:05:46;31.73;;;17.25;;
10977;SDS011;5542;48.272;10.794;2024-01-11T08:08:16;36.15;;;17.50;;
10977;SDS011;5542;48.272;10.794;2024-01-11T08:10:43;31.57;;;16.50;;
10977;SDS011;5542;48.272;10.794;2024-01-11T08:13:10;25.77;;;14.82;;
10977;SDS011;5542;48.272;10.794;2024-01-11T08:15:38;32.45;;;16.15;;
10977;SDS011;5542;48.272;10.794;2024-01-11T08:18:04;36.20;;;17.88;;
10977;SDS011;5542;48.272;10.794;2024-01-11T08:20:31;33.22;;;17.63;;
10977;SDS011;5542;48.272;10.794;2024-01-11T08:22:58;32.13;;;17.52;;
10977;SDS011;5542;48.272;10.794;2024-01-11T08:25:26;33.88;;;18.13;;
10977;SDS011;5542;48.272;10.794;2024-01-11T08:27:52;35.17;;;18.30;;
10977;SDS011;5542;48.272;10.794;2024-01-11T08:30:19;33.03;;;18.63;;
10977;SDS011;5542;48.272;10.794;2024-01-11T08:32:46;37.65;;;19.27;;
10977;SDS011;5542;48.272;10.794;2024-01-11T08:35:13;33.88;;;18.48;;
10977;SDS011;5542;48.272;10.794;2024-01-11T08:37:41;31.43;;;16.43;;
10977;SDS011;5542;48.272;10.794;2024-01-11T08:40:08;34.97;;;19.63;;
10977;SDS011;5542;48.272;10.794;2024-01-11T08:42:37;34.17;;;17.75;;
10977;SDS011;5542;48.272;10.794;2024-01-11T08:45:05;40.73;;;20.53;;
10977;SDS011;5542;48.272;10.794;2024-01-11T08:47:32;39.83;;;20.15;;
10977;SDS011;5542;48.272;10.794;2024-01-11T08:49:59;37.70;;;19.52;;
10977;SDS011;5542;48.272;10.794;2024-01-11T08:52:26;29.52;;;17.55;;
10977;SDS011;5542;48.272;10.794;2024-01-11T08:54:53;34.70;;;18.67;;
10977;SDS011;5542;48.272;10.794;2024-01-11T08:57:19;29.85;;;16.83;;
10977;SDS011;5542;48.272;10.794;2024-01-11T08:59:47;31.83;;;18.30;;
10977;SDS011;5542;48.272;10.794;2024-01-11T09:02:14;33.00;;;17.63;;
10977;SDS011;5542;48.272;10.794;2024-01-11T09:04:41;34.20;;;18.85;;
10977;SDS011;5542;48.272;10.794;2024-01-11T09:07:07;34.92;;;17.75;;
10977;SDS011;5542;48.272;10.794;2024-01-11T09:09:34;33.38;;;17.60;;
10977;SDS011;5542;48.272;10.794;2024-01-11T09:12:00;30.48;;;17.15;;
10977;SDS011;5542;48.272;10.794;2024-01-11T09:14:27;29.63;;;17.30;;
10977;SDS011;5542;48.272;10.794;2024-01-11T09:16:55;29.63;;;16.08;;
10977;SDS011;5542;48.272;10.794;2024-01-11T09:19:22;33.47;;;18.52;;
10977;SDS011;5542;48.272;10.794;2024-01-11T09:21:49;30.05;;;16.38;;
10977;SDS011;5542;48.272;10.794;2024-01-11T09:24:15;33.70;;;18.60;;
10977;SDS011;5542;48.272;10.794;2024-01-11T09:26:42;28.95;;;16.17;;
10977;SDS011;5542;48.272;10.794;2024-01-11T09:29:09;29.80;;;17.00;;
10977;SDS011;5542;48.272;10.794;2024-01-11T09:31:35;31.77;;;16.67;;
10977;SDS011;5542;48.272;10.794;2024-01-11T09:34:04;26.40;;;15.40;;
10977;SDS011;5542;48.272;10.794;2024-01-11T09:36:30;25.30;;;14.07;;
10977;SDS011;5542;48.272;10.794;2024-01-11T09:38:58;36.55;;;18.23;;
10977;SDS011;5542;48.272;10.794;2024-01-11T09:41:24;31.58;;;17.80;;
10977;SDS011;5542;48.272;10.794;2024-01-11T09:43:52;34.28;;;19.25;;
10977;SDS011;5542;48.272;10.794;2024-01-11T09:46:20;34.28;;;18.33;;
10977;SDS011;5542;48.272;10.794;2024-01-11T09:48:48;32.25;;;16.90;;
10977;SDS011;5542;48.272;10.794;2024-01-11T09:51:18;31.47;;;17.63;;
10977;SDS011;5542;48.272;10.794;2024-01-11T09:53:44;29.60;;;16.20;;
10977;SDS011;5542;48.272;10.794;2024-01-11T09:56:13;27.17;;;15.23;;
10977;SDS011;5542;48.272;10.794;2024-01-11T09:58:47;22.42;;;14.35;;
10977;SDS011;5542;48.272;10.794;2024-01-11T10:01:15;28.08;;;15.55;;
10977;SDS011;5542;48.272;10.794;2024-01-11T10:03:42;28.42;;;15.55;;
10977;SDS011;5542;48.272;10.794;2024-01-11T10:06:11;24.13;;;14.57;;
10977;SDS011;5542;48.272;10.794;2024-01-11T10:08:39;28.23;;;16.08;;
10977;SDS011;5542;48.272;10.794;2024-01-11T10:11:06;25.02;;;14.13;;
10977;SDS011;5542;48.272;10.794;2024-01-11T10:13:33;32.35;;;15.95;;
10977;SDS011;5542;48.272;10.794;2024-01-11T10:16:07;27.63;;;16.20;;
10977;SDS011;5542;48.272;10.794;2024-01-11T10:18:34;26.95;;;16.13;;
10977;SDS011;5542;48.272;10.794;2024-01-11T10:21:01;42.05;;;23.70;;
10977;SDS011;5542;48.272;10.794;2024-01-11T10:23:28;76.93;;;35.30;;
10977;SDS011;5542;48.272;10.794;2024-01-11T10:25:57;68.22;;;32.45;;
10977;SDS011;5542;48.272;10.794;2024-01-11T10:28:24;32.67;;;18.23;;
10977;SDS011;5542;48.272;10.794;2024-01-11T10:30:53;29.30;;;16.45;;
10977;SDS011;5542;48.272;10.794;2024-01-11T10:33:20;31.20;;;17.35;;
10977;SDS011;5542;48.272;10.794;2024-01-11T10:35:48;28.38;;;16.17;;
10977;SDS011;5542;48.272;10.794;2024-01-11T10:38:15;27.92;;;14.98;;
10977;SDS011;5542;48.272;10.794;2024-01-11T10:40:42;31.92;;;17.02;;
10977;SDS011;5542;48.272;10.794;2024-01-11T10:43:11;32.08;;;17.40;;
10977;SDS011;5542;48.272;10.794;2024-01-11T10:45:41;29.05;;;16.58;;
10977;SDS011;5542;48.272;10.794;2024-01-11T10:48:14;30.48;;;16.95;;
10977;SDS011;5542;48.272;10.794;2024-01-11T10:50:42;34.90;;;17.02;;
10977;SDS011;5542;48.272;10.794;2024-01-11T10:53:12;30.00;;;15.95;;
10977;SDS011;5542;48.272;10.794;2024-01-11T10:55:52;27.75;;;15.90;;
10977;SDS011;5542;48.272;10.794;2024-01-11T10:58:21;35.40;;;18.80;;
10977;SDS011;5542;48.272;10.794;2024-01-11T11:00:49;30.67;;;17.20;;
10977;SDS011;5542;48.272;10.794;2024-01-11T11:03:19;23.08;;;14.55;;
10977;SDS011;5542;48.272;10.794;2024-01-11T11:05:47;28.65;;;15.45;;
10977;SDS011;5542;48.272;10.794;2024-01-11T11:08:15;28.77;;;16.50;;
10977;SDS011;5542;48.272;10.794;2024-01-11T11:10:44;34.42;;;18.83;;
10977;SDS011;5542;48.272;10.794;2024-01-11T11:13:13;30.27;;;17.65;;
10977;SDS011;5542;48.272;10.794;2024-01-11T11:15:42;32.53;;;17.60;;
10977;SDS011;5542;48.272;10.794;2024-01-11T11:18:11;29.60;;;17.40;;
10977;SDS011;5542;48.272;10.794;2024-01-11T11:20:39;31.35;;;18.25;;
10977;SDS011;5542;48.272;10.794;2024-01-11T11:23:07;31.67;;;17.30;;
10977;SDS011;5542;48.272;10.794;2024-01-11T11:25:35;33.70;;;18.55;;
10977;SDS011;5542;48.272;10.794;2024-01-11T11:28:02;28.10;;;18.17;;
10977;SDS011;5542;48.272;10.794;2024-01-11T11:30:29;33.50;;;16.77;;
10977;SDS011;5542;48.272;10.794;2024-01-11T11:32:57;31.60;;;17.30;;
10977;SDS011;5542;48.272;10.794;2024-01-11T11:35:33;32.53;;;18.35;;
10977;SDS011;5542;48.272;10.794;2024-01-11T11:37:59;32.85;;;18.08;;
10977;SDS011;5542;48.272;10.794;2024-01-11T11:40:31;31.15;;;18.60;;
10977;SDS011;5542;48.272;10.794;2024-01-11T11:43:01;29.20;;;17.38;;
10977;SDS011;5542;48.272;10.794;2024-01-11T11:45:30;29.83;;;17.38;;
10977;SDS011;5542;48.272;10.794;2024-01-11T11:47:58;30.60;;;17.77;;
10977;SDS011;5542;48.272;10.794;2024-01-11T11:50:25;32.65;;;17.80;;
10977;SDS011;5542;48.272;10.794;2024-01-11T11:52:53;31.13;;;18.52;;
10977;SDS011;5542;48.272;10.794;2024-01-11T11:55:20;34.45;;;18.48;;
10977;SDS011;5542;48.272;10.794;2024-01-11T11:57:48;30.33;;;17.15;;
10977;SDS011;5542;48.272;10.794;2024-01-11T12:00:16;33.70;;;17.55;;
10977;SDS011;5542;48.272;10.794;2024-01-11T12:02:43;34.40;;;18.20;;
10977;SDS011;5542;48.272;10.794;2024-01-11T12:05:11;32.97;;;18.53;;
10977;SDS011;5542;48.272;10.794;2024-01-11T12:07:38;31.42;;;17.17;;
10977;SDS011;5542;48.272;10.794;2024-01-11T12:10:05;25.98;;;16.42;;
10977;SDS011;5542;48.272;10.794;2024-01-11T12:12:33;30.73;;;17.63;;
10977;SDS011;5542;48.272;10.794;2024-01-11T12:15:00;29.90;;;15.95;;
10977;SDS011;5542;48.272;10.794;2024-01-11T12:17:29;27.08;;;15.18;;
10977;SDS011;5542;48.272;10.794;2024-01-11T12:19:55;25.90;;;15.85;;
10977;SDS011;5542;48.272;10.794;2024-01-11T12:22:23;28.70;;;16.83;;
10977;SDS011;5542;48.272;10.794;2024-01-11T12:24:50;28.33;;;16.67;;
10977;SDS011;5542;48.272;10.794;2024-01-11T12:27:17;29.02;;;17.50;;
10977;SDS011;5542;48.272;10.794;2024-01-11T12:29:44;27.13;;;15.68;;
10977;SDS011;5542;48.272;10.794;2024-01-11T12:32:11;27.77;;;16.15;;
10977;SDS011;5542;48.272;10.794;2024-01-11T12:34:40;26.75;;;16.25;;
10977;SDS011;5542;48.272;10.794;2024-01-11T12:37:08;32.85;;;16.48;;
10977;SDS011;5542;48.272;10.794;2024-01-11T12:39:38;23.80;;;15.57;;
10977;SDS011;5542;48.272;10.794;2024-01-11T12:42:05;24.13;;;13.95;;
10977;SDS011;5542;48.272;10.794;2024-01-11T12:44:33;31.30;;;17.25;;
10977;SDS011;5542;48.272;10.794;2024-01-11T12:47:02;27.55;;;16.58;;
10977;SDS011;5542;48.272;10.794;2024-01-11T12:49:30;29.95;;;17.20;;
10977;SDS011;5542;48.272;10.794;2024-01-11T12:51:57;25.08;;;15.35;;
10977;SDS011;5542;48.272;10.794;2024-01-11T12:54:23;28.65;;;17.48;;
10977;SDS011;5542;48.272;10.794;2024-01-11T12:56:51;23.98;;;15.40;;
10977;SDS011;5542;48.272;10.794;2024-01-11T12:59:18;26.65;;;16.23;;
10977;SDS011;5542;48.272;10.794;2024-01-11T13:01:45;27.77;;;16.85;;
10977;SDS011;5542;48.272;10.794;2024-01-11T13:04:11;32.42;;;17.33;;
10977;SDS011;5542;48.272;10.794;2024-01-11T13:06:38;29.92;;;16.40;;
10977;SDS011;5542;48.272;10.794;2024-01-11T13:09:06;26.92;;;14.70;;
10977;SDS011;5542;48.272;10.794;2024-01-11T13:11:33;25.75;;;14.98;;
10977;SDS011;5542;48.272;10.794;2024-01-11T13:14:01;28.05;;;15.98;;
10977;SDS011;5542;48.272;10.794;2024-01-11T13:16:31;24.45;;;15.75;;
10977;SDS011;5542;48.272;10.794;2024-01-11T13:18:58;30.58;;;17.23;;
10977;SDS011;5542;48.272;10.794;2024-01-11T13:21:24;28.60;;;17.10;;
10977;SDS011;5542;48.272;10.794;2024-01-11T13:23:51;27.90;;;16.25;;
10977;SDS011;5542;48.272;10.794;2024-01-11T13:26:18;28.10;;;15.40;;
10977;SDS011;5542;48.272;10.794;2024-01-11T13:28:45;27.40;;;16.33;;
10977;SDS011;5542;48.272;10.794;2024-01-11T13:31:13;25.92;;;15.23;;
10977;SDS011;5542;48.272;10.794;2024-01-11T13:33:40;23.80;;;14.10;;
10977;SDS011;5542;48.272;10.794;2024-01-11T13:36:06;25.75;;;15.73;;
10977;SDS011;5542;48.272;10.794;2024-01-11T13:38:34;23.25;;;13.90;;
10977;SDS011;5542;48.272;10.794;2024-01-11T13:41:00;26.50;;;15.25;;
10977;SDS011;5542;48.272;10.794;2024-01-11T13:43:27;29.75;;;17.42;;
10977;SDS011;5542;48.272;10.794;2024-01-11T13:45:54;30.85;;;17.33;;
10977;SDS011;5542;48.272;10.794;2024-01-11T13:48:22;29.05;;;16.90;;
10977;SDS011;5542;48.272;10.794;2024-01-11T13:50:49;27.80;;;15.15;;
10977;SDS011;5542;48.272;10.794;2024-01-11T13:53:16;24.70;;;14.48;;
10977;SDS011;5542;48.272;10.794;2024-01-11T13:55:42;27.15;;;16.73;;
10977;SDS011;5542;48.272;10.794;2024-01-11T13:58:09;33.72;;;18.73;;
10977;SDS011;5542;48.272;10.794;2024-01-11T14:00:37;32.15;;;18.70;;
10977;SDS011;5542;48.272;10.794;2024-01-11T14:03:04;33.40;;;18.85;;
10977;SDS011;5542;48.272;10.794;2024-01-11T14:05:33;29.33;;;16.13;;
10977;SDS011;5542;48.272;10.794;2024-01-11T14:08:00;30.92;;;17.10;;
10977;SDS011;5542;48.272;10.794;2024-01-11T14:10:30;29.25;;;17.17;;
10977;SDS011;5542;48.272;10.794;2024-01-11T14:12:57;29.20;;;17.45;;
10977;SDS011;5542;48.272;10.794;2024-01-11T14:15:24;30.35;;;17.25;;
10977;SDS011;5542;48.272;10.794;2024-01-11T14:17:50;27.92;;;16.70;;
10977;SDS011;5542;48.272;10.794;2024-01-11T14:20:17;35.72;;;20.33;;